This is the latest recevied weather packets stored in our database for station/object OE-11099. If no packets are shown the sender has not sent any weather packets the latest 10 day(s).
| Time | Temp. | Humidity | Pressure | Rain* | Wind** | Luminosity | Snow |
|---|---|---|---|---|---|---|---|
| 1788098105 | 27.78° C | 45% | 1012.2 hPa | 0 mm | - | 612 W/m² | - |
| 1788097279 | 27.78° C | 47% | 1012.2 hPa | 0 mm | - | 625 W/m² | - |
| 1788096906 | 27.22° C | 44% | 1012.4 hPa | 0 mm | - | 645 W/m² | - |
| 1788096305 | 27.78° C | 46% | 1012.3 hPa | 0 mm | - | 658 W/m² | - |
| 1788095479 | 27.78° C | 45% | 1012.3 hPa | 0 mm | - | 672 W/m² | - |
| 1788095106 | 27.78° C | 45% | 1012.5 hPa | 0 mm | - | 685 W/m² | - |
| 1788094506 | 27.78° C | 45% | 1012.5 hPa | 0 mm | - | 691 W/m² | - |
| 1788093679 | 27.78° C | 47% | 1012.4 hPa | 0 mm | - | 705 W/m² | - |
| 1788093306 | 27.78° C | 45% | 1012.5 hPa | 0 mm | - | 705 W/m² | - |
| 1788092706 | 27.78° C | 45% | 1012.6 hPa | 0 mm | - | 731 W/m² | - |
| 1788091878 | 27.78° C | 44% | 1012.8 hPa | 0 mm | - | 738 W/m² | - |
| 1788091506 | 27.78° C | 43% | 1012.9 hPa | 0 mm | - | 745 W/m² | - |
| 1788090906 | 27.22° C | 44% | 1012.9 hPa | 0 mm | - | 751 W/m² | - |
| 1788090078 | 27.78° C | 44% | 1013 hPa | 0 mm | - | 758 W/m² | - |
| 1788089705 | 27.22° C | 45% | 1013.2 hPa | 0 mm | - | 738 W/m² | - |
| 1788089106 | 27.22° C | 46% | 1013.3 hPa | 0 mm | - | 758 W/m² | - |
| 1788088279 | 26.11° C | 47% | 1013.7 hPa | 0 mm | - | 751 W/m² | - |
| 1788087906 | 25.56° C | 44% | 1013.8 hPa | 0 mm | - | 745 W/m² | - |
| 1788087306 | 26.67° C | 44% | 1013.6 hPa | 0 mm | - | 745 W/m² | - |
| 1788086479 | 25.56° C | 45% | 1013.9 hPa | 0 mm | - | 745 W/m² | - |
| 1788086106 | 26.67° C | 45% | 1013.9 hPa | 0 mm | - | 725 W/m² | - |
| 1788085506 | 25.56° C | 46% | 1014.5 hPa | 0 mm | - | 725 W/m² | - |
| 1788084679 | 25° C | 50% | 1014.6 hPa | 0 mm | - | 725 W/m² | - |
| 1788084306 | 25° C | 48% | 1014.9 hPa | 0 mm | - | 711 W/m² | - |
| 1788083705 | 25.56° C | 51% | 1014.8 hPa | 0 mm | - | 698 W/m² | - |
* Rain latest hour (hover to see other rain measurements)
** Current wind speed in m/s (hover to see current wind gust speed)